YCAS

Casino Airport

Australia
METAR YCAS 200500Z AUTO 17010KT //// // ////// 19/04 Q1022
Observed Flight Rules
Jun-20 @ 05:00 UTC (34 minutes ago)
Wind
170° at 10 knots
Temperatures Readings
Current 19°C / 66°F
Dewpoint 4°C / 39°F
Humidity 37%
Altimeter 30.18" Hg
Pressure 1022 hPa
Elevation 26
METAR YCAS 200500Z AUTO 17010KT //// // ////// 19/04 Q1022
Observed Flight Rules
Jun-20 @ 05:00 UTC
(34 minutes ago)
Wind
170° at 10 knots
Temperature Dewpoint
19°C / 66°F 4°C / 39°F
Humidity Altimeter Pressure
37% 30.18" Hg 1022 hPa